Time;durP1;ratioP1;P1;durP2;ratioP2;P2;SDS_P1;SDS_P2;PMS_P1;PMS_P2;Temp;Humidity;BMP_temperature;BMP_pressure;BME280_temperature;BME280_humidity;BME280_pressure;Samples;Min_cycle;Max_cycle;Signal;HPM_P1;HPM_P2
2023/06/12 00:01:52;;;;;;;9.70;5.20;;;;;;;11.42;68.92;101074.10;102376;281;120581;-55
2023/06/12 00:04:31;;;;;;;8.80;5.10;;;;;;;11.39;68.78;101073.50;102404;280;103840;-55
2023/06/12 00:07:07;;;;;;;7.30;5.40;;;;;;;11.34;69.06;101072.52;102223;281;116374;-55
2023/06/12 00:09:39;;;;;;;9.80;6.00;;;;;;;11.30;69.03;101070.45;102423;280;96216;-56
2023/06/12 00:12:12;;;;;;;10.20;5.50;;;;;;;11.25;69.23;101071.89;102439;281;98112;-55
2023/06/12 00:14:52;;;;;;;8.90;5.20;;;;;;;11.16;69.44;101072.05;102427;280;119640;-58
2023/06/12 00:17:27;;;;;;;7.00;5.20;;;;;;;11.11;69.37;101072.23;102480;279;105512;-57
2023/06/12 00:19:59;;;;;;;8.50;5.00;;;;;;;11.06;69.54;101070.57;102504;279;114225;-58
2023/06/12 00:22:39;;;;;;;9.50;5.10;;;;;;;10.98;69.83;101068.75;102559;279;92364;-58
2023/06/12 00:25:15;;;;;;;7.10;5.10;;;;;;;10.94;69.88;101070.73;102560;279;96665;-54
2023/06/12 00:27:52;;;;;;;9.60;5.10;;;;;;;10.90;69.87;101067.95;102503;279;120310;-54
2023/06/12 00:30:26;;;;;;;9.30;5.60;;;;;;;10.86;69.97;101066.73;102546;279;105674;-55
2023/06/12 00:33:03;;;;;;;8.40;5.60;;;;;;;10.78;70.01;101068.89;102480;279;114476;-55
2023/06/12 00:35:39;;;;;;;7.60;4.70;;;;;;;10.73;70.26;101070.91;102554;279;95828;-58
2023/06/12 00:38:19;;;;;;;11.30;5.40;;;;;;;10.69;70.27;101075.39;102493;280;98227;-58
2023/06/12 00:40:54;;;;;;;11.00;5.70;;;;;;;10.62;70.20;101074.85;102456;279;120042;-55
2023/06/12 00:43:27;;;;;;;7.00;5.30;;;;;;;10.58;70.31;101071.80;102451;279;103639;-53
2023/06/12 00:46:01;;;;;;;9.70;5.30;;;;;;;10.52;70.41;101074.92;102503;279;113799;-55
2023/06/12 00:48:35;;;;;;;9.30;5.60;;;;;;;10.50;70.49;101073.73;102474;279;93228;-55
2023/06/12 00:51:17;;;;;;;7.20;5.30;;;;;;;10.49;70.46;101073.44;102492;279;97697;-56
2023/06/12 00:53:52;;;;;;;9.90;6.00;;;;;;;10.45;70.47;101078.51;102486;279;120977;-55
2023/06/12 00:56:29;;;;;;;8.40;5.60;;;;;;;10.38;70.30;101077.58;102474;279;103610;-54
2023/06/12 00:59:03;;;;;;;8.50;5.50;;;;;;;10.32;70.22;101076.14;102446;279;113930;-56
2023/06/12 01:01:38;;;;;;;8.90;6.20;;;;;;;10.27;70.33;101075.27;102445;279;95651;-56
2023/06/12 01:04:13;;;;;;;8.40;5.90;;;;;;;10.25;70.26;101078.91;102495;279;97688;-54
2023/06/12 01:06:55;;;;;;;8.30;5.80;;;;;;;10.22;70.17;101077.51;102497;279;120571;-55
2023/06/12 01:09:37;;;;;;;8.40;5.40;;;;;;;10.21;70.12;101079.57;102541;279;104134;-58
2023/06/12 01:12:11;;;;;;;7.40;5.50;;;;;;;10.20;70.29;101077.33;102657;279;114044;-59
2023/06/12 01:14:46;;;;;;;9.30;5.90;;;;;;;10.14;70.23;101075.14;102636;279;95274;-59
2023/06/12 01:17:22;;;;;;;8.30;5.30;;;;;;;10.05;70.30;101076.27;102638;279;98358;-58
2023/06/12 01:19:57;;;;;;;8.30;6.30;;;;;;;9.99;70.22;101072.79;102523;279;121333;-55
2023/06/12 01:22:36;;;;;;;8.80;5.80;;;;;;;9.92;70.32;101072.79;102414;279;106297;-55
2023/06/12 01:25:59;;;;;;;8.00;5.60;;;;;;;9.88;70.49;101075.05;102460;279;114248;-56
2023/06/12 01:29:03;;;;;;;9.40;5.80;;;;;;;9.84;70.59;101082.77;102443;279;94326;-56
2023/06/12 01:31:43;;;;;;;8.20;5.90;;;;;;;9.79;70.71;101083.98;102445;279;96318;-56
2023/06/12 01:34:26;;;;;;;8.10;6.20;;;;;;;9.74;70.87;101082.56;102311;281;121899;-53
2023/06/12 01:37:09;;;;;;;10.00;6.40;;;;;;;9.68;70.98;101084.55;102471;279;105586;-55
2023/06/12 01:39:55;;;;;;;11.10;6.40;;;;;;;9.61;71.15;101090.86;102425;279;114657;-56
2023/06/12 01:42:29;;;;;;;10.60;5.90;;;;;;;9.56;71.08;101093.40;102426;279;96313;-58
2023/06/12 01:45:08;;;;;;;9.50;7.30;;;;;;;9.52;71.26;101090.97;102504;279;96857;-56
2023/06/12 01:47:49;;;;;;;9.60;6.40;;;;;;;9.48;71.28;101094.43;102465;279;121187;-56
2023/06/12 01:50:21;;;;;;;9.60;6.50;;;;;;;9.46;71.34;101093.71;102504;279;105100;-58
2023/06/12 01:52:58;;;;;;;8.90;6.20;;;;;;;9.42;71.38;101095.59;102467;279;113198;-58
2023/06/12 01:55:30;;;;;;;12.60;6.70;;;;;;;9.41;71.28;101092.63;102557;279;94467;-59
2023/06/12 01:58:06;;;;;;;9.40;6.80;;;;;;;9.36;71.66;101090.75;102626;279;97250;-59
2023/06/12 02:00:45;;;;;;;9.00;6.90;;;;;;;9.29;71.55;101093.80;102352;279;122211;-55
2023/06/12 02:03:22;;;;;;;10.20;6.60;;;;;;;9.25;71.52;101095.64;102355;279;104332;-55
2023/06/12 02:05:53;;;;;;;13.20;7.70;;;;;;;9.21;71.61;101094.11;102415;279;113893;-57
2023/06/12 02:08:35;;;;;;;14.80;7.80;;;;;;;9.16;71.48;101101.65;102435;279;97139;-58
2023/06/12 02:11:13;;;;;;;11.10;7.20;;;;;;;9.16;71.45;101098.33;102441;279;96531;-55
2023/06/12 02:13:53;;;;;;;10.00;7.70;;;;;;;9.13;71.38;101101.64;102399;279;119294;-56
2023/06/12 02:16:36;;;;;;;11.60;7.30;;;;;;;9.07;71.51;101105.75;102401;279;105451;-55
2023/06/12 02:19:07;;;;;;;12.20;7.10;;;;;;;9.03;71.41;101100.63;102433;279;114516;-55
2023/06/12 02:21:39;;;;;;;9.60;7.50;;;;;;;8.98;71.61;101104.66;102428;279;93994;-57
2023/06/12 02:24:11;;;;;;;11.70;8.10;;;;;;;8.95;71.70;101104.89;102508;279;98238;-59
2023/06/12 02:26:46;;;;;;;13.20;8.00;;;;;;;8.93;71.80;101104.85;102435;279;121658;-59
2023/06/12 02:29:18;;;;;;;13.30;7.30;;;;;;;8.94;71.72;101105.20;102457;279;105989;-59
2023/06/12 02:31:51;;;;;;;10.20;7.00;;;;;;;8.93;71.71;101106.33;102434;279;114570;-58
2023/06/12 02:34:22;;;;;;;10.80;7.40;;;;;;;8.95;71.81;101110.61;102453;279;96375;-60
2023/06/12 02:36:58;;;;;;;11.70;7.90;;;;;;;9.01;71.77;101111.23;102486;279;95372;-60
2023/06/12 02:39:41;;;;;;;12.10;7.60;;;;;;;9.04;71.94;101112.39;102511;279;120866;-58
2023/06/12 02:42:18;;;;;;;10.50;7.30;;;;;;;9.06;71.90;101115.13;102394;279;107135;-60
2023/06/12 02:44:49;;;;;;;10.40;7.50;;;;;;;9.12;71.57;101114.83;102371;279;114800;-55
2023/06/12 02:47:24;;;;;;;11.80;8.10;;;;;;;9.11;71.76;101116.75;102446;279;97432;-55
2023/06/12 02:49:58;;;;;;;12.20;7.60;;;;;;;9.16;71.57;101118.26;102451;279;98182;-57
2023/06/12 02:52:39;;;;;;;11.10;6.90;;;;;;;9.17;71.57;101117.56;102368;279;121634;-56
2023/06/12 02:55:12;;;;;;;12.50;8.00;;;;;;;9.21;71.64;101122.70;102443;279;106572;-60
2023/06/12 02:57:51;;;;;;;15.20;7.50;;;;;;;9.27;71.43;101123.32;102402;279;113246;-60
2023/06/12 03:00:23;;;;;;;10.40;7.20;;;;;;;9.30;71.40;101125.66;102394;279;93761;-59
2023/06/12 03:03:02;;;;;;;9.70;7.70;;;;;;;9.35;71.41;101125.71;102410;279;97659;-59
2023/06/12 03:05:45;;;;;;;14.90;8.40;;;;;;;9.42;71.33;101123.30;102535;279;120452;-60
2023/06/12 03:08:19;;;;;;;13.40;7.40;;;;;;;9.55;71.22;101117.98;102452;279;104370;-60
2023/06/12 03:10:52;;;;;;;12.40;8.50;;;;;;;9.64;71.09;101119.01;102460;279;114896;-56
2023/06/12 03:13:23;;;;;;;12.90;7.40;;;;;;;9.70;71.03;101122.96;102435;279;96279;-56
2023/06/12 03:16:02;;;;;;;14.70;7.90;;;;;;;9.78;71.06;101124.59;102510;279;97340;-58
2023/06/12 03:18:43;;;;;;;10.30;6.50;;;;;;;9.89;70.88;101123.40;101753;279;917069;-59
2023/06/12 03:21:20;;;;;;;14.00;6.90;;;;;;;10.02;70.84;101123.04;102557;279;105758;-56
2023/06/12 03:23:57;;;;;;;10.50;6.00;;;;;;;10.17;70.64;101123.19;102536;279;113930;-57
2023/06/12 03:26:31;;;;;;;9.10;5.90;;;;;;;10.51;70.51;101126.91;102527;279;93135;-57
2023/06/12 03:29:10;;;;;;;13.40;5.30;;;;;;;11.26;69.74;101127.39;102550;279;96973;-58
2023/06/12 03:31:53;;;;;;;9.80;4.20;;;;;;;12.78;68.37;101129.95;102513;279;119902;-59
2023/06/12 03:34:25;;;;;;;6.60;4.00;;;;;;;14.38;66.27;101123.41;102513;279;104241;-56
2023/06/12 03:37:03;;;;;;;7.00;4.10;;;;;;;15.68;64.37;101121.42;102478;279;114428;-57
2023/06/12 03:39:37;;;;;;;8.30;4.20;;;;;;;17.06;61.77;101122.17;102464;279;95467;-57
2023/06/12 03:42:10;;;;;;;11.10;4.50;;;;;;;18.12;59.55;101123.08;102458;279;98223;-55
2023/06/12 03:44:45;;;;;;;10.50;3.80;;;;;;;19.03;57.48;101118.84;102493;279;119621;-59
2023/06/12 03:47:25;;;;;;;6.30;4.10;;;;;;;19.87;55.57;101122.13;102484;279;104516;-60
2023/06/12 03:50:00;;;;;;;7.70;4.60;;;;;;;20.60;53.53;101122.98;102483;279;112025;-56
2023/06/12 03:52:33;;;;;;;12.40;5.30;;;;;;;21.43;51.56;101120.13;102447;279;94362;-56
2023/06/12 03:55:08;;;;;;;10.10;4.70;;;;;;;22.06;49.37;101119.65;102481;279;98321;-58
2023/06/12 03:57:41;;;;;;;10.60;5.50;;;;;;;22.71;47.87;101119.46;102482;279;120679;-59
2023/06/12 04:00:15;;;;;;;6.80;4.20;;;;;;;23.30;45.67;101114.94;102580;279;104492;-60
2023/06/12 04:02:56;;;;;;;12.20;4.40;;;;;;;23.89;44.44;101114.13;102582;279;114174;-59
2023/06/12 04:05:30;;;;;;;5.30;3.20;;;;;;;24.39;42.74;101107.13;102664;279;94566;-59
2023/06/12 04:08:01;;;;;;;5.80;3.40;;;;;;;24.91;41.22;101109.88;102705;279;98312;-58
2023/06/12 04:10:37;;;;;;;4.90;3.60;;;;;;;25.18;40.30;101107.45;102665;279;120928;-59
2023/06/12 04:13:12;;;;;;;9.10;3.50;;;;;;;25.50;39.19;101108.63;102579;279;105852;-60
2023/06/12 04:15:47;;;;;;;6.20;3.60;;;;;;;25.87;37.68;101111.35;102496;279;113769;-56
2023/06/12 04:18:22;;;;;;;6.30;3.40;;;;;;;26.05;36.90;101115.99;102467;279;93685;-56
2023/06/12 04:20:55;;;;;;;7.20;3.20;;;;;;;26.44;35.77;101111.52;102527;279;97971;-59
2023/06/12 04:23:32;;;;;;;6.10;3.20;;;;;;;26.59;34.91;101110.84;102527;279;121593;-59
2023/06/12 04:26:04;;;;;;;4.10;3.40;;;;;;;25.62;34.86;101114.55;102410;279;104836;-55
2023/06/12 04:28:41;;;;;;;8.00;3.80;;;;;;;24.33;35.26;101112.04;102448;279;115070;-56
2023/06/12 04:31:16;;;;;;;6.00;3.20;;;;;;;23.18;35.57;101115.21;102391;279;94374;-58
2023/06/12 04:33:52;;;;;;;8.80;3.40;;;;;;;22.12;36.25;101115.67;102416;279;96690;-56
2023/06/12 04:36:28;;;;;;;9.30;3.40;;;;;;;21.53;37.04;101115.73;102475;279;118350;-56
2023/06/12 04:39:03;;;;;;;7.30;3.50;;;;;;;21.12;37.24;101116.79;102479;279;106372;-58
2023/06/12 04:41:36;;;;;;;6.30;3.80;;;;;;;20.45;38.33;101117.50;102446;279;113174;-58
2023/06/12 04:44:09;;;;;;;7.90;3.60;;;;;;;19.92;38.80;101120.35;102452;279;94502;-58
2023/06/12 04:46:46;;;;;;;8.00;3.60;;;;;;;20.52;39.06;101117.98;102447;279;98160;-57
2023/06/12 04:49:20;;;;;;;8.00;3.30;;;;;;;22.23;38.27;101121.18;102508;279;121150;-55
2023/06/12 04:51:52;;;;;;;7.80;3.80;;;;;;;23.96;37.12;101116.96;102441;279;105808;-55
2023/06/12 04:54:35;;;;;;;8.80;3.70;;;;;;;25.19;35.90;101114.02;102500;279;114356;-59
2023/06/12 04:57:16;;;;;;;6.40;3.40;;;;;;;26.04;34.93;101114.27;102535;279;94023;-59
2023/06/12 04:59:48;;;;;;;5.80;3.90;;;;;;;26.90;33.77;101110.29;102394;279;97771;-56
2023/06/12 05:02:22;;;;;;;6.30;3.40;;;;;;;27.75;32.94;101107.62;102419;279;120211;-56
2023/06/12 05:04:54;;;;;;;10.20;3.20;;;;;;;28.65;32.28;101107.73;102461;279;105830;-55
2023/06/12 05:07:27;;;;;;;5.30;3.30;;;;;;;29.31;31.45;101104.52;102399;279;114005;-56
2023/06/12 05:10:01;;;;;;;7.30;3.40;;;;;;;29.82;30.52;101108.50;102414;279;94260;-56
2023/06/12 05:12:35;;;;;;;6.10;3.60;;;;;;;30.41;29.75;101108.92;102420;279;98573;-56
2023/06/12 05:15:10;;;;;;;6.90;3.90;;;;;;;30.83;29.04;101107.01;102466;279;120798;-60
2023/06/12 05:17:42;;;;;;;9.30;3.30;;;;;;;31.05;28.40;101109.25;102426;279;104390;-59
2023/06/12 05:20:16;;;;;;;5.50;3.20;;;;;;;30.98;27.84;101103.77;102481;279;115164;-60
2023/06/12 05:22:52;;;;;;;7.70;3.40;;;;;;;31.35;27.69;101097.55;102388;279;94550;-60
2023/06/12 05:25:25;;;;;;;7.90;3.20;;;;;;;31.66;27.26;101099.98;102452;268;97658;-56
2023/06/12 05:27:59;;;;;;;25.00;5.10;;;;;;;32.07;26.64;101099.51;102431;279;120944;-56
2023/06/12 05:30:32;;;;;;;7.60;3.70;;;;;;;32.33;26.38;101098.39;102465;279;104915;-56
2023/06/12 05:33:11;;;;;;;9.10;3.50;;;;;;;32.48;26.07;101102.48;102420;279;115121;-57
2023/06/12 05:35:52;;;;;;;8.60;3.60;;;;;;;32.70;25.67;101095.35;102485;279;92644;-62
2023/06/12 05:38:29;;;;;;;6.50;3.10;;;;;;;32.80;25.10;101091.61;102413;279;97676;-58
2023/06/12 05:41:02;;;;;;;11.90;3.60;;;;;;;32.98;24.64;101091.06;102496;279;121553;-59
2023/06/12 05:43:35;;;;;;;9.80;3.70;;;;;;;33.35;24.49;101085.26;102463;279;106399;-55
2023/06/12 05:46:10;;;;;;;;;;;;;;;33.38;24.40;101082.77;102463;279;113584;-57
2023/06/12 05:48:43;;;;;;;13.70;4.50;;;;;;;33.45;24.46;101081.05;102401;279;94786;-57
2023/06/12 05:51:17;;;;;;;9.90;4.40;;;;;;;33.64;23.98;101084.08;102421;279;97810;-58
2023/06/12 05:53:55;;;;;;;8.60;3.60;;;;;;;33.40;23.83;101081.92;102448;279;121181;-57
2023/06/12 05:56:31;;;;;;;6.00;3.10;;;;;;;33.37;23.92;101084.87;102404;279;103905;-58
2023/06/12 05:59:12;;;;;;;9.00;3.50;;;;;;;34.04;23.46;101084.60;102384;280;113600;-58
2023/06/12 06:01:44;;;;;;;9.00;3.80;;;;;;;34.20;22.98;101088.98;102472;279;95542;-60
2023/06/12 06:04:23;;;;;;;10.80;3.20;;;;;;;34.82;22.82;101089.12;102568;279;96873;-58
2023/06/12 06:07:01;;;;;;;12.60;4.40;;;;;;;35.33;22.21;101091.66;102407;279;121894;-58
2023/06/12 06:09:34;;;;;;;10.20;3.70;;;;;;;35.56;22.00;101089.08;102454;279;106163;-56
2023/06/12 06:12:08;;;;;;;11.80;3.70;;;;;;;35.56;21.74;101092.14;102437;279;114855;-55
2023/06/12 06:14:43;;;;;;;6.90;3.70;;;;;;;35.86;21.73;101086.10;102459;279;93468;-55
2023/06/12 06:17:16;;;;;;;9.10;3.00;;;;;;;36.00;21.40;101086.69;102458;279;97980;-56
2023/06/12 06:19:48;;;;;;;;;;;;;;;35.66;21.36;101086.38;102473;279;120259;-56
2023/06/12 06:22:24;;;;;;;9.70;3.50;;;;;;;35.94;21.28;101086.20;102517;279;105939;-56
2023/06/12 06:24:57;;;;;;;9.40;3.00;;;;;;;36.30;21.01;101086.65;102510;279;113871;-56
2023/06/12 06:27:30;;;;;;;7.40;3.00;;;;;;;36.44;20.65;101089.42;102467;279;93808;-57
2023/06/12 06:30:07;;;;;;;7.70;3.10;;;;;;;36.27;20.51;101091.05;102502;279;97100;-57
2023/06/12 06:32:42;;;;;;;9.20;2.70;;;;;;;36.38;20.21;101087.51;102458;280;120916;-58
2023/06/12 06:35:16;;;;;;;6.40;2.40;;;;;;;36.41;20.05;101089.15;102460;280;105417;-61
2023/06/12 06:37:48;;;;;;;10.50;3.10;;;;;;;36.33;20.05;101088.93;102424;279;115011;-61
2023/06/12 06:40:24;;;;;;;8.20;2.70;;;;;;;36.15;20.16;101088.48;102486;279;94114;-62
2023/06/12 06:42:56;;;;;;;15.00;3.60;;;;;;;36.01;19.97;101089.92;102436;279;97871;-61
2023/06/12 06:45:32;;;;;;;10.50;3.40;;;;;;;36.56;19.67;101088.92;102466;268;119960;-56
2023/06/12 06:48:09;;;;;;;11.20;2.80;;;;;;;36.34;19.58;101096.28;102438;279;106012;-57
2023/06/12 06:50:54;;;;;;;10.20;3.00;;;;;;;36.50;18.81;101094.41;102399;279;113480;-57
2023/06/12 06:53:32;;;;;;;8.80;2.60;;;;;;;37.05;18.88;101091.00;102348;279;94060;-57
2023/06/12 06:56:07;;;;;;;8.20;2.70;;;;;;;37.10;18.40;101093.95;102483;279;96971;-56
2023/06/12 06:58:41;;;;;;;5.50;2.40;;;;;;;36.43;18.81;101095.67;102440;279;120630;-56
2023/06/12 07:01:17;;;;;;;4.50;2.00;;;;;;;36.70;18.41;101092.67;102455;279;104877;-56
2023/06/12 07:03:52;;;;;;;3.90;1.80;;;;;;;37.01;18.24;101091.98;102396;279;114138;-57
2023/06/12 07:06:26;;;;;;;4.00;1.90;;;;;;;36.42;17.28;101088.06;102482;279;93331;-56
2023/06/12 07:09:01;;;;;;;5.20;1.80;;;;;;;36.29;17.43;101084.90;102493;279;97469;-56
2023/06/12 07:11:36;;;;;;;6.10;2.10;;;;;;;36.87;17.44;101082.70;102367;279;121968;-55
2023/06/12 07:14:11;;;;;;;9.10;2.30;;;;;;;36.32;17.16;101084.13;102490;279;105606;-59
2023/06/12 07:16:46;;;;;;;4.50;2.00;;;;;;;35.91;17.75;101080.45;102435;279;113407;-59
2023/06/12 07:19:22;;;;;;;9.00;2.40;;;;;;;36.05;17.52;101075.94;102505;279;93803;-60
2023/06/12 07:22:05;;;;;;;4.60;1.70;;;;;;;36.63;17.80;101078.30;102625;279;97389;-59
2023/06/12 07:24:45;;;;;;;7.10;2.20;;;;;;;36.45;16.91;101072.56;102539;279;120426;-58
2023/06/12 07:27:26;;;;;;;3.80;2.20;;;;;;;36.21;16.83;101079.88;102401;279;105345;-59
2023/06/12 07:30:05;;;;;;;;;;;;;;;36.50;16.59;101078.79;102356;280;114821;-55
2023/06/12 07:32:46;;;;;;;6.90;2.00;;;;;;;36.05;16.26;101081.55;102418;279;93783;-57
2023/06/12 07:35:23;;;;;;;2.70;1.40;;;;;;;35.55;16.19;101076.53;102492;279;96037;-59
2023/06/12 07:37:57;;;;;;;6.00;1.70;;;;;;;35.24;16.04;101080.59;102452;279;120377;-59
2023/06/12 07:40:39;;;;;;;6.10;1.50;;;;;;;35.14;16.15;101075.45;102600;279;105046;-65
2023/06/12 07:43:14;;;;;;;4.20;1.90;;;;;;;34.94;16.11;101075.04;102431;279;115237;-56
2023/06/12 07:45:56;;;;;;;3.10;1.70;;;;;;;34.85;16.26;101074.31;102561;279;94784;-55
2023/06/12 07:48:33;;;;;;;3.20;1.50;;;;;;;34.59;16.15;101075.48;102576;279;97267;-56
2023/06/12 07:51:12;;;;;;;4.00;1.80;;;;;;;34.63;16.08;101079.62;102521;279;119154;-56
2023/06/12 07:53:49;;;;;;;5.60;1.80;;;;;;;34.47;16.20;101078.56;102417;280;105341;-57
2023/06/12 07:56:27;;;;;;;2.80;1.30;;;;;;;34.89;16.53;101070.17;102442;279;114631;-56
2023/06/12 07:59:14;;;;;;;3.40;1.50;;;;;;;35.16;15.98;101073.66;102419;279;93945;-58
2023/06/12 08:01:46;;;;;;;4.30;1.60;;;;;;;34.72;15.69;101069.34;102338;279;97653;-59
2023/06/12 08:04:22;;;;;;;5.70;1.60;;;;;;;34.05;16.00;101074.15;102410;279;121860;-56
2023/06/12 08:06:54;;;;;;;3.90;1.40;;;;;;;34.13;15.95;101061.38;102435;279;105339;-56
2023/06/12 08:09:30;;;;;;;5.70;2.40;;;;;;;33.77;15.70;101065.31;102394;279;113058;-58
2023/06/12 08:12:05;;;;;;;4.30;1.60;;;;;;;33.52;15.94;101063.63;102397;279;93323;-58
2023/06/12 08:14:36;;;;;;;10.50;2.20;;;;;;;33.70;15.69;101057.88;102471;279;96483;-56
2023/06/12 08:17:14;;;;;;;8.90;2.80;;;;;;;33.66;15.98;101057.91;102412;279;119955;-55
2023/06/12 08:19:56;;;;;;;6.90;2.30;;;;;;;33.85;15.84;101057.96;102433;279;105059;-60
2023/06/12 08:22:36;;;;;;;6.10;1.80;;;;;;;33.44;15.62;101051.61;102395;279;114645;-59
2023/06/12 08:25:10;;;;;;;7.10;2.00;;;;;;;33.19;16.05;101053.11;102419;279;94441;-56
2023/06/12 08:27:42;;;;;;;6.00;2.00;;;;;;;33.26;16.00;101048.09;102433;279;98862;-56
2023/06/12 08:30:17;;;;;;;6.30;1.50;;;;;;;32.83;15.93;101056.13;102449;279;119667;-56
2023/06/12 08:32:57;;;;;;;3.70;2.00;;;;;;;32.77;16.00;101060.16;102443;271;105397;-60
2023/06/12 08:35:29;;;;;;;9.50;2.00;;;;;;;32.38;16.07;101056.52;102451;279;112391;-59
2023/06/12 08:38:03;;;;;;;;;;;;;;;32.26;16.51;101063.38;102496;279;94068;-58
2023/06/12 08:40:40;;;;;;;3.50;1.70;;;;;;;32.32;16.33;101061.15;102502;268;97159;-58
2023/06/12 08:43:20;;;;;;;7.20;1.70;;;;;;;32.31;16.72;101057.58;102532;279;120337;-59
2023/06/12 08:45:58;;;;;;;2.60;1.70;;;;;;;32.95;16.49;101051.05;102479;279;105904;-57
2023/06/12 08:48:30;;;;;;;4.60;1.60;;;;;;;32.79;16.02;101057.61;102395;279;114911;-55
2023/06/12 08:51:04;;;;;;;4.90;1.40;;;;;;;31.68;16.31;101053.80;102450;279;94658;-59
2023/06/12 08:53:36;;;;;;;3.30;1.50;;;;;;;31.64;16.57;101055.48;102495;279;97518;-59
2023/06/12 08:56:12;;;;;;;4.40;1.60;;;;;;;31.34;16.87;101045.69;102438;279;120360;-58
2023/06/12 08:58:46;;;;;;;6.30;1.90;;;;;;;30.56;17.10;101054.33;102428;279;105926;-56
2023/06/12 09:01:23;;;;;;;4.70;1.60;;;;;;;29.73;17.45;101055.52;102464;279;115089;-59
2023/06/12 09:04:00;;;;;;;2.80;1.30;;;;;;;29.11;17.94;101042.28;102496;279;94488;-56
2023/06/12 09:06:40;;;;;;;3.00;1.60;;;;;;;29.03;18.79;101048.45;102429;279;96901;-55
2023/06/12 09:09:14;;;;;;;4.70;1.90;;;;;;;28.73;19.07;101050.05;102412;279;120404;-58
2023/06/12 09:11:54;;;;;;;3.80;1.60;;;;;;;28.25;19.35;101053.66;102462;279;105979;-59
2023/06/12 09:14:34;;;;;;;6.60;1.70;;;;;;;27.74;19.72;101059.70;102465;279;114026;-65
2023/06/12 09:17:07;;;;;;;3.90;1.80;;;;;;;27.36;19.96;101053.61;102488;279;93225;-62
2023/06/12 09:19:48;;;;;;;5.50;1.80;;;;;;;27.48;20.67;101047.64;102490;279;98182;-60
2023/06/12 09:22:32;;;;;;;2.80;1.60;;;;;;;27.49;20.40;101046.35;102533;279;118362;-60
2023/06/12 09:25:10;;;;;;;;;;;;;;;27.22;20.88;101044.57;102540;279;105921;-61
2023/06/12 09:27:50;;;;;;;5.30;2.50;;;;;;;27.00;20.97;101050.86;102504;279;112732;-61
2023/06/12 09:30:22;;;;;;;2.90;1.40;;;;;;;26.41;20.97;101047.60;102483;279;91815;-61
2023/06/12 09:33:02;;;;;;;3.30;1.70;;;;;;;26.02;21.20;101039.11;102510;279;96205;-61
2023/06/12 09:35:51;;;;;;;2.50;1.50;;;;;;;26.10;21.76;101043.34;102490;279;119635;-61
2023/06/12 09:38:32;;;;;;;3.90;1.80;;;;;;;26.19;21.96;101040.15;102448;279;105972;-62
2023/06/12 09:41:12;;;;;;;3.20;1.80;;;;;;;26.21;22.15;101043.95;102448;279;113205;-61
2023/06/12 09:43:45;;;;;;;2.70;1.60;;;;;;;26.10;22.25;101039.89;102392;280;93114;-62
2023/06/12 09:46:26;;;;;;;2.90;2.00;;;;;;;26.07;22.20;101031.58;102423;280;97380;-61
2023/06/12 09:49:07;;;;;;;4.20;1.50;;;;;;;25.80;22.01;101042.45;102413;280;119505;-63
2023/06/12 09:51:46;;;;;;;3.10;1.90;;;;;;;25.42;21.97;101035.98;102354;279;104213;-61
2023/06/12 09:54:21;;;;;;;3.60;1.60;;;;;;;25.35;22.05;101036.60;102493;279;112134;-62
2023/06/12 09:56:57;;;;;;;7.60;1.90;;;;;;;25.33;22.60;101031.45;102462;279;92963;-61
2023/06/12 09:59:37;;;;;;;4.30;1.90;;;;;;;25.24;22.73;101028.16;102501;279;98525;-61
2023/06/12 10:02:19;;;;;;;4.80;1.70;;;;;;;25.13;22.71;101031.27;102475;279;120609;-61
2023/06/12 10:05:06;;;;;;;5.00;1.80;;;;;;;25.21;22.65;101029.59;102533;279;105560;-61
2023/06/12 10:07:48;;;;;;;3.00;1.70;;;;;;;24.88;22.62;101034.73;102465;279;112882;-60
2023/06/12 10:10:22;;;;;;;5.00;1.70;;;;;;;24.96;22.93;101027.98;102504;279;94995;-58
2023/06/12 10:12:55;;;;;;;3.90;1.50;;;;;;;24.96;22.87;101022.67;102508;279;98599;-58
2023/06/12 10:15:32;;;;;;;3.30;1.60;;;;;;;24.97;22.91;101023.29;102467;279;119207;-62
2023/06/12 10:18:08;;;;;;;6.20;1.80;;;;;;;24.90;22.65;101012.30;102475;279;105764;-60
2023/06/12 10:20:43;;;;;;;3.00;1.60;;;;;;;25.09;23.07;101014.05;102351;280;112280;-61
2023/06/12 10:23:19;;;;;;;4.20;1.70;;;;;;;25.25;23.09;101013.28;102477;279;94592;-62
2023/06/12 10:26:01;;;;;;;2.80;1.80;;;;;;;25.27;23.16;101011.36;102456;279;97701;-60
2023/06/12 10:28:33;;;;;;;3.70;1.80;;;;;;;25.40;23.48;101003.92;102449;279;120156;-62
2023/06/12 10:31:19;;;;;;;5.30;2.30;;;;;;;25.49;23.43;101001.20;102350;279;107419;-62
2023/06/12 10:34:10;;;;;;;4.30;2.00;;;;;;;25.56;23.42;101004.77;102340;279;113721;-61
2023/06/12 10:36:47;;;;;;;4.40;1.50;;;;;;;25.15;23.06;101005.23;102454;279;93711;-61
2023/06/12 10:39:25;;;;;;;5.10;2.20;;;;;;;24.85;23.22;100997.73;102524;279;97832;-63
2023/06/12 10:41:59;;;;;;;5.00;1.90;;;;;;;24.97;23.59;100997.23;102488;279;120241;-62
2023/06/12 10:44:43;;;;;;;5.70;1.90;;;;;;;25.34;23.80;100999.20;102514;279;105033;-62
2023/06/12 10:47:26;;;;;;;5.50;2.50;;;;;;;25.42;23.26;100996.80;102471;279;113192;-61
2023/06/12 10:50:03;;;;;;;4.60;1.90;;;;;;;25.47;23.36;100992.79;102450;279;95378;-56
2023/06/12 10:52:55;;;;;;;2.90;1.60;;;;;;;25.07;23.44;100993.66;102280;280;97812;-58
2023/06/12 10:55:37;;;;;;;5.90;1.80;;;;;;;24.64;23.66;100986.81;102468;279;120831;-58
2023/06/12 10:58:20;;;;;;;7.70;1.60;;;;;;;24.60;24.05;100983.14;102435;279;105639;-58
2023/06/12 11:00:53;;;;;;;3.60;2.00;;;;;;;24.91;23.97;100984.33;102501;279;112972;-56
2023/06/12 11:03:34;;;;;;;2.90;1.60;;;;;;;24.86;24.22;100987.78;102441;279;94516;-55
2023/06/12 11:06:16;;;;;;;6.10;2.00;;;;;;;24.51;24.26;100984.46;102423;279;96603;-57
2023/06/12 11:08:53;;;;;;;5.60;1.80;;;;;;;24.08;24.62;100984.14;102468;279;120414;-58
2023/06/12 11:11:41;;;;;;;3.30;1.70;;;;;;;23.70;25.00;100986.10;102408;279;105265;-54
2023/06/12 11:14:15;;;;;;;4.80;1.80;;;;;;;23.67;25.05;100981.56;102451;279;114103;-56
2023/06/12 11:16:46;;;;;;;4.50;2.00;;;;;;;23.68;24.90;100982.90;102440;279;94332;-57
2023/06/12 11:19:28;;;;;;;4.50;1.80;;;;;;;23.72;24.80;100969.98;101942;279;96837;-55
2023/06/12 11:22:06;;;;;;;5.40;1.80;;;;;;;24.02;24.53;100969.39;102419;280;120340;-57
2023/06/12 11:24:42;;;;;;;3.60;1.70;;;;;;;24.18;24.36;100972.70;102459;279;104562;-54
2023/06/12 11:27:30;;;;;;;2.60;1.60;;;;;;;24.29;24.35;100961.52;102456;279;114340;-56
2023/06/12 11:30:13;;;;;;;6.20;2.10;;;;;;;24.35;24.26;100963.88;102449;279;94034;-55
2023/06/12 11:32:51;;;;;;;4.90;2.00;;;;;;;24.21;23.94;100956.53;102432;279;96024;-54
2023/06/12 11:35:25;;;;;;;4.80;1.70;;;;;;;24.26;24.26;100946.91;102566;279;117706;-57
2023/06/12 11:38:06;;;;;;;3.10;1.80;;;;;;;24.34;24.19;100941.10;102531;279;102967;-57
2023/06/12 11:40:48;;;;;;;2.90;1.60;;;;;;;24.35;24.09;100943.66;102440;279;115334;-54
2023/06/12 11:43:26;;;;;;;2.80;1.60;;;;;;;24.41;23.90;100934.09;102499;279;93768;-54
2023/06/12 11:46:03;;;;;;;3.30;1.80;;;;;;;24.39;23.94;100929.98;102486;279;97369;-58
2023/06/12 11:48:42;;;;;;;3.90;1.60;;;;;;;24.43;24.18;100924.09;102496;279;120444;-57
2023/06/12 11:51:21;;;;;;;4.50;1.90;;;;;;;24.31;24.09;100927.11;102429;279;104167;-58
2023/06/12 11:54:00;;;;;;;3.40;2.10;;;;;;;24.52;24.19;100928.83;102471;279;114567;-54
2023/06/12 11:56:33;;;;;;;5.50;2.00;;;;;;;24.06;23.96;100925.89;102471;275;95505;-54
2023/06/12 11:59:07;;;;;;;4.60;2.10;;;;;;;23.62;24.28;100921.76;102467;279;97759;-57
2023/06/12 12:01:48;;;;;;;7.80;2.30;;;;;;;23.29;24.75;100923.14;102482;279;119729;-58
2023/06/12 12:04:20;;;;;;;7.80;2.10;;;;;;;22.97;24.65;100920.30;102302;280;104445;-57
2023/06/12 12:06:58;;;;;;;11.30;2.30;;;;;;;22.82;25.03;100924.91;102479;279;114821;-58